sensor_id;sensor_type;location;lat;lon;timestamp;P1;durP1;ratioP1;P2;durP2;ratioP2
14394;SDS011;7282;49.204;10.652;2023-03-01T00:01:08;24.27;;;16.32;;
14394;SDS011;7282;49.204;10.652;2023-03-01T00:03:35;20.02;;;15.58;;
14394;SDS011;7282;49.204;10.652;2023-03-01T00:06:02;21.85;;;16.00;;
14394;SDS011;7282;49.204;10.652;2023-03-01T00:08:29;24.45;;;16.12;;
14394;SDS011;7282;49.204;10.652;2023-03-01T00:11:00;24.80;;;17.25;;
14394;SDS011;7282;49.204;10.652;2023-03-01T00:13:27;24.20;;;15.90;;
14394;SDS011;7282;49.204;10.652;2023-03-01T00:15:54;22.05;;;15.93;;
14394;SDS011;7282;49.204;10.652;2023-03-01T00:18:21;22.45;;;15.75;;
14394;SDS011;7282;49.204;10.652;2023-03-01T00:20:52;24.05;;;16.77;;
14394;SDS011;7282;49.204;10.652;2023-03-01T00:23:19;20.68;;;15.55;;
14394;SDS011;7282;49.204;10.652;2023-03-01T00:25:46;21.95;;;16.40;;
14394;SDS011;7282;49.204;10.652;2023-03-01T00:28:13;22.05;;;15.58;;
14394;SDS011;7282;49.204;10.652;2023-03-01T00:30:40;21.90;;;16.00;;
14394;SDS011;7282;49.204;10.652;2023-03-01T00:33:06;22.42;;;16.57;;
14394;SDS011;7282;49.204;10.652;2023-03-01T00:35:33;22.47;;;15.90;;
14394;SDS011;7282;49.204;10.652;2023-03-01T00:38:00;25.32;;;15.60;;
14394;SDS011;7282;49.204;10.652;2023-03-01T00:40:27;22.75;;;15.68;;
14394;SDS011;7282;49.204;10.652;2023-03-01T00:42:54;26.20;;;16.23;;
14394;SDS011;7282;49.204;10.652;2023-03-01T00:45:21;23.05;;;16.20;;
14394;SDS011;7282;49.204;10.652;2023-03-01T00:47:48;23.07;;;16.37;;
14394;SDS011;7282;49.204;10.652;2023-03-01T00:50:15;23.02;;;15.70;;
14394;SDS011;7282;49.204;10.652;2023-03-01T00:52:41;22.42;;;15.83;;
14394;SDS011;7282;49.204;10.652;2023-03-01T00:55:08;22.13;;;15.20;;
14394;SDS011;7282;49.204;10.652;2023-03-01T00:57:35;22.80;;;15.85;;
14394;SDS011;7282;49.204;10.652;2023-03-01T01:00:02;26.85;;;16.27;;
14394;SDS011;7282;49.204;10.652;2023-03-01T01:02:31;22.32;;;16.50;;
14394;SDS011;7282;49.204;10.652;2023-03-01T01:04:58;24.37;;;16.07;;
14394;SDS011;7282;49.204;10.652;2023-03-01T01:07:25;21.15;;;15.53;;
14394;SDS011;7282;49.204;10.652;2023-03-01T01:09:52;20.27;;;14.37;;
14394;SDS011;7282;49.204;10.652;2023-03-01T01:12:18;20.23;;;15.05;;
14394;SDS011;7282;49.204;10.652;2023-03-01T01:14:45;26.40;;;16.70;;
14394;SDS011;7282;49.204;10.652;2023-03-01T01:17:12;26.73;;;16.67;;
14394;SDS011;7282;49.204;10.652;2023-03-01T01:19:38;23.07;;;16.57;;
14394;SDS011;7282;49.204;10.652;2023-03-01T01:22:05;24.70;;;16.70;;
14394;SDS011;7282;49.204;10.652;2023-03-01T01:24:32;26.00;;;15.58;;
14394;SDS011;7282;49.204;10.652;2023-03-01T01:26:59;20.95;;;15.55;;
14394;SDS011;7282;49.204;10.652;2023-03-01T01:29:25;23.05;;;16.55;;
14394;SDS011;7282;49.204;10.652;2023-03-01T01:31:52;22.32;;;15.58;;
14394;SDS011;7282;49.204;10.652;2023-03-01T01:34:20;22.40;;;15.87;;
14394;SDS011;7282;49.204;10.652;2023-03-01T01:36:48;23.67;;;15.95;;
14394;SDS011;7282;49.204;10.652;2023-03-01T01:39:15;21.37;;;15.80;;
14394;SDS011;7282;49.204;10.652;2023-03-01T01:41:41;24.35;;;16.52;;
14394;SDS011;7282;49.204;10.652;2023-03-01T01:44:12;23.47;;;16.85;;
14394;SDS011;7282;49.204;10.652;2023-03-01T01:49:44;22.40;;;15.37;;
14394;SDS011;7282;49.204;10.652;2023-03-01T01:52:18;29.57;;;16.37;;
14394;SDS011;7282;49.204;10.652;2023-03-01T01:55:03;23.65;;;16.37;;
14394;SDS011;7282;49.204;10.652;2023-03-01T01:57:34;21.20;;;15.80;;
14394;SDS011;7282;49.204;10.652;2023-03-01T02:00:04;22.25;;;15.32;;
14394;SDS011;7282;49.204;10.652;2023-03-01T02:02:30;26.00;;;16.33;;
14394;SDS011;7282;49.204;10.652;2023-03-01T02:05:06;24.47;;;17.17;;
14394;SDS011;7282;49.204;10.652;2023-03-01T02:07:33;22.63;;;15.90;;
14394;SDS011;7282;49.204;10.652;2023-03-01T02:10:00;22.57;;;16.77;;
14394;SDS011;7282;49.204;10.652;2023-03-01T02:12:27;22.95;;;15.78;;
14394;SDS011;7282;49.204;10.652;2023-03-01T02:14:54;22.48;;;15.45;;
14394;SDS011;7282;49.204;10.652;2023-03-01T02:17:21;24.05;;;16.52;;
14394;SDS011;7282;49.204;10.652;2023-03-01T02:22:24;23.75;;;16.05;;
14394;SDS011;7282;49.204;10.652;2023-03-01T02:27:20;25.17;;;16.17;;
14394;SDS011;7282;49.204;10.652;2023-03-01T02:29:50;22.37;;;16.15;;
14394;SDS011;7282;49.204;10.652;2023-03-01T02:32:17;25.15;;;16.87;;
14394;SDS011;7282;49.204;10.652;2023-03-01T02:34:46;24.87;;;16.87;;
14394;SDS011;7282;49.204;10.652;2023-03-01T02:37:14;22.93;;;15.87;;
14394;SDS011;7282;49.204;10.652;2023-03-01T02:39:44;23.10;;;15.60;;
14394;SDS011;7282;49.204;10.652;2023-03-01T02:42:16;22.93;;;15.83;;
14394;SDS011;7282;49.204;10.652;2023-03-01T02:44:43;23.22;;;15.85;;
14394;SDS011;7282;49.204;10.652;2023-03-01T02:47:10;24.23;;;16.55;;
14394;SDS011;7282;49.204;10.652;2023-03-01T02:49:37;25.70;;;16.50;;
14394;SDS011;7282;49.204;10.652;2023-03-01T02:52:20;23.40;;;15.68;;
14394;SDS011;7282;49.204;10.652;2023-03-01T02:54:52;24.63;;;17.52;;
14394;SDS011;7282;49.204;10.652;2023-03-01T02:57:19;25.12;;;16.95;;
14394;SDS011;7282;49.204;10.652;2023-03-01T02:59:47;23.73;;;16.35;;
14394;SDS011;7282;49.204;10.652;2023-03-01T03:02:21;26.40;;;17.70;;
14394;SDS011;7282;49.204;10.652;2023-03-01T03:04:50;25.20;;;16.95;;
14394;SDS011;7282;49.204;10.652;2023-03-01T03:07:16;26.17;;;17.62;;
14394;SDS011;7282;49.204;10.652;2023-03-01T03:09:43;25.92;;;17.05;;
14394;SDS011;7282;49.204;10.652;2023-03-01T03:12:10;27.07;;;17.27;;
14394;SDS011;7282;49.204;10.652;2023-03-01T03:14:36;27.55;;;16.85;;
14394;SDS011;7282;49.204;10.652;2023-03-01T03:17:03;23.92;;;16.30;;
14394;SDS011;7282;49.204;10.652;2023-03-01T03:19:32;25.08;;;16.05;;
14394;SDS011;7282;49.204;10.652;2023-03-01T03:21:58;23.80;;;16.97;;
14394;SDS011;7282;49.204;10.652;2023-03-01T03:24:25;24.47;;;17.12;;
14394;SDS011;7282;49.204;10.652;2023-03-01T03:26:53;27.50;;;17.23;;
14394;SDS011;7282;49.204;10.652;2023-03-01T03:29:20;26.60;;;17.57;;
14394;SDS011;7282;49.204;10.652;2023-03-01T03:31:46;24.50;;;16.35;;
14394;SDS011;7282;49.204;10.652;2023-03-01T03:34:13;23.77;;;17.07;;
14394;SDS011;7282;49.204;10.652;2023-03-01T03:36:42;29.80;;;17.73;;
14394;SDS011;7282;49.204;10.652;2023-03-01T03:39:08;25.43;;;16.60;;
14394;SDS011;7282;49.204;10.652;2023-03-01T03:41:35;27.58;;;17.02;;
14394;SDS011;7282;49.204;10.652;2023-03-01T03:44:02;28.62;;;17.82;;
14394;SDS011;7282;49.204;10.652;2023-03-01T03:46:28;26.25;;;16.77;;
14394;SDS011;7282;49.204;10.652;2023-03-01T03:48:55;26.12;;;16.45;;
14394;SDS011;7282;49.204;10.652;2023-03-01T03:51:22;27.67;;;17.55;;
14394;SDS011;7282;49.204;10.652;2023-03-01T03:53:48;25.32;;;15.78;;
14394;SDS011;7282;49.204;10.652;2023-03-01T03:56:15;27.10;;;16.87;;
14394;SDS011;7282;49.204;10.652;2023-03-01T03:58:42;27.67;;;17.95;;
14394;SDS011;7282;49.204;10.652;2023-03-01T04:01:09;25.40;;;17.75;;
14394;SDS011;7282;49.204;10.652;2023-03-01T04:03:35;26.77;;;17.12;;
14394;SDS011;7282;49.204;10.652;2023-03-01T04:06:02;23.75;;;16.95;;
14394;SDS011;7282;49.204;10.652;2023-03-01T04:08:30;24.55;;;16.57;;
14394;SDS011;7282;49.204;10.652;2023-03-01T04:10:58;27.48;;;17.48;;
14394;SDS011;7282;49.204;10.652;2023-03-01T04:13:25;26.12;;;17.25;;
14394;SDS011;7282;49.204;10.652;2023-03-01T04:15:52;27.35;;;17.98;;
14394;SDS011;7282;49.204;10.652;2023-03-01T04:18:20;30.17;;;18.10;;
14394;SDS011;7282;49.204;10.652;2023-03-01T04:20:47;28.70;;;17.52;;
14394;SDS011;7282;49.204;10.652;2023-03-01T04:23:14;31.75;;;18.45;;
14394;SDS011;7282;49.204;10.652;2023-03-01T04:25:45;28.27;;;18.20;;
14394;SDS011;7282;49.204;10.652;2023-03-01T04:28:10;28.12;;;16.85;;
14394;SDS011;7282;49.204;10.652;2023-03-01T04:30:38;28.55;;;17.67;;
14394;SDS011;7282;49.204;10.652;2023-03-01T04:33:05;23.83;;;16.67;;
14394;SDS011;7282;49.204;10.652;2023-03-01T04:35:35;29.40;;;16.95;;
14394;SDS011;7282;49.204;10.652;2023-03-01T04:38:02;25.60;;;16.57;;
14394;SDS011;7282;49.204;10.652;2023-03-01T04:40:29;27.40;;;17.60;;
14394;SDS011;7282;49.204;10.652;2023-03-01T04:42:56;27.05;;;17.05;;
14394;SDS011;7282;49.204;10.652;2023-03-01T04:45:22;28.77;;;18.15;;
14394;SDS011;7282;49.204;10.652;2023-03-01T04:47:49;25.05;;;17.23;;
14394;SDS011;7282;49.204;10.652;2023-03-01T04:50:18;27.77;;;17.73;;
14394;SDS011;7282;49.204;10.652;2023-03-01T04:52:47;24.43;;;16.75;;
14394;SDS011;7282;49.204;10.652;2023-03-01T04:55:14;29.23;;;18.23;;
14394;SDS011;7282;49.204;10.652;2023-03-01T04:57:41;31.25;;;17.37;;
14394;SDS011;7282;49.204;10.652;2023-03-01T05:00:09;28.40;;;17.60;;
14394;SDS011;7282;49.204;10.652;2023-03-01T05:02:51;24.98;;;15.72;;
14394;SDS011;7282;49.204;10.652;2023-03-01T05:05:23;29.30;;;17.05;;
14394;SDS011;7282;49.204;10.652;2023-03-01T05:07:58;26.48;;;17.48;;
14394;SDS011;7282;49.204;10.652;2023-03-01T05:10:20;34.53;;;19.12;;
14394;SDS011;7282;49.204;10.652;2023-03-01T05:12:46;28.57;;;17.57;;
14394;SDS011;7282;49.204;10.652;2023-03-01T05:15:13;27.87;;;17.50;;
14394;SDS011;7282;49.204;10.652;2023-03-01T05:17:40;25.80;;;17.17;;
14394;SDS011;7282;49.204;10.652;2023-03-01T05:20:08;29.87;;;17.35;;
14394;SDS011;7282;49.204;10.652;2023-03-01T05:22:35;29.15;;;17.85;;
14394;SDS011;7282;49.204;10.652;2023-03-01T05:25:02;31.85;;;18.73;;
14394;SDS011;7282;49.204;10.652;2023-03-01T05:27:28;25.85;;;16.90;;
14394;SDS011;7282;49.204;10.652;2023-03-01T05:29:55;27.82;;;17.85;;
14394;SDS011;7282;49.204;10.652;2023-03-01T05:32:22;26.93;;;17.75;;
14394;SDS011;7282;49.204;10.652;2023-03-01T05:34:49;29.87;;;19.37;;
14394;SDS011;7282;49.204;10.652;2023-03-01T05:37:17;27.98;;;17.98;;
14394;SDS011;7282;49.204;10.652;2023-03-01T05:39:45;28.70;;;19.05;;
14394;SDS011;7282;49.204;10.652;2023-03-01T05:42:12;31.35;;;17.70;;
14394;SDS011;7282;49.204;10.652;2023-03-01T05:44:38;26.10;;;17.10;;
14394;SDS011;7282;49.204;10.652;2023-03-01T05:47:05;29.65;;;17.70;;
14394;SDS011;7282;49.204;10.652;2023-03-01T05:49:32;27.75;;;17.67;;
14394;SDS011;7282;49.204;10.652;2023-03-01T05:51:59;27.37;;;18.55;;
14394;SDS011;7282;49.204;10.652;2023-03-01T05:54:25;27.58;;;17.95;;
14394;SDS011;7282;49.204;10.652;2023-03-01T05:56:52;25.08;;;17.25;;
14394;SDS011;7282;49.204;10.652;2023-03-01T05:59:19;33.05;;;19.10;;
14394;SDS011;7282;49.204;10.652;2023-03-01T06:01:45;26.40;;;16.55;;
14394;SDS011;7282;49.204;10.652;2023-03-01T06:04:12;29.25;;;17.12;;
14394;SDS011;7282;49.204;10.652;2023-03-01T06:06:39;29.18;;;18.73;;
14394;SDS011;7282;49.204;10.652;2023-03-01T06:09:06;28.10;;;17.95;;
14394;SDS011;7282;49.204;10.652;2023-03-01T06:11:35;25.35;;;18.75;;
14394;SDS011;7282;49.204;10.652;2023-03-01T06:14:02;30.30;;;18.12;;
14394;SDS011;7282;49.204;10.652;2023-03-01T06:16:29;25.97;;;17.20;;
14394;SDS011;7282;49.204;10.652;2023-03-01T06:18:56;28.65;;;17.62;;
14394;SDS011;7282;49.204;10.652;2023-03-01T06:21:22;28.52;;;19.02;;
14394;SDS011;7282;49.204;10.652;2023-03-01T06:23:49;29.35;;;17.87;;
14394;SDS011;7282;49.204;10.652;2023-03-01T06:26:16;28.75;;;17.48;;
14394;SDS011;7282;49.204;10.652;2023-03-01T06:28:42;29.70;;;18.27;;
14394;SDS011;7282;49.204;10.652;2023-03-01T06:31:11;26.90;;;17.32;;
14394;SDS011;7282;49.204;10.652;2023-03-01T06:33:38;28.32;;;18.35;;
14394;SDS011;7282;49.204;10.652;2023-03-01T06:36:05;29.32;;;18.48;;
14394;SDS011;7282;49.204;10.652;2023-03-01T06:38:31;29.27;;;19.00;;
14394;SDS011;7282;49.204;10.652;2023-03-01T06:40:58;28.02;;;18.17;;
14394;SDS011;7282;49.204;10.652;2023-03-01T06:43:25;28.65;;;17.75;;
14394;SDS011;7282;49.204;10.652;2023-03-01T06:45:52;28.27;;;17.73;;
14394;SDS011;7282;49.204;10.652;2023-03-01T06:48:18;29.15;;;17.55;;
14394;SDS011;7282;49.204;10.652;2023-03-01T06:50:45;30.37;;;18.65;;
14394;SDS011;7282;49.204;10.652;2023-03-01T06:53:12;31.35;;;18.45;;
14394;SDS011;7282;49.204;10.652;2023-03-01T06:55:38;25.92;;;17.65;;
14394;SDS011;7282;49.204;10.652;2023-03-01T06:58:05;28.32;;;17.98;;
14394;SDS011;7282;49.204;10.652;2023-03-01T07:00:32;27.98;;;18.35;;
14394;SDS011;7282;49.204;10.652;2023-03-01T07:02:59;31.52;;;18.32;;
14394;SDS011;7282;49.204;10.652;2023-03-01T07:05:26;27.58;;;18.48;;
14394;SDS011;7282;49.204;10.652;2023-03-01T07:07:53;29.15;;;17.48;;
14394;SDS011;7282;49.204;10.652;2023-03-01T07:10:21;30.37;;;19.42;;
14394;SDS011;7282;49.204;10.652;2023-03-01T07:12:47;29.37;;;19.07;;
14394;SDS011;7282;49.204;10.652;2023-03-01T07:15:14;27.20;;;18.95;;
14394;SDS011;7282;49.204;10.652;2023-03-01T07:17:41;28.90;;;17.50;;
14394;SDS011;7282;49.204;10.652;2023-03-01T07:20:08;30.35;;;18.50;;
14394;SDS011;7282;49.204;10.652;2023-03-01T07:22:35;29.40;;;19.77;;
14394;SDS011;7282;49.204;10.652;2023-03-01T07:25:01;26.97;;;19.02;;
14394;SDS011;7282;49.204;10.652;2023-03-01T07:27:28;28.45;;;18.23;;
14394;SDS011;7282;49.204;10.652;2023-03-01T07:29:55;27.30;;;17.87;;
14394;SDS011;7282;49.204;10.652;2023-03-01T07:32:21;29.12;;;18.17;;
14394;SDS011;7282;49.204;10.652;2023-03-01T07:34:48;29.67;;;18.83;;
14394;SDS011;7282;49.204;10.652;2023-03-01T07:37:15;29.85;;;19.25;;
14394;SDS011;7282;49.204;10.652;2023-03-01T07:39:42;25.40;;;18.10;;
14394;SDS011;7282;49.204;10.652;2023-03-01T07:42:08;27.90;;;19.17;;
14394;SDS011;7282;49.204;10.652;2023-03-01T07:44:35;27.75;;;17.77;;
14394;SDS011;7282;49.204;10.652;2023-03-01T07:47:03;25.53;;;17.50;;
14394;SDS011;7282;49.204;10.652;2023-03-01T07:49:29;29.20;;;18.45;;
14394;SDS011;7282;49.204;10.652;2023-03-01T07:51:56;29.83;;;18.40;;
14394;SDS011;7282;49.204;10.652;2023-03-01T07:54:23;28.40;;;19.53;;
14394;SDS011;7282;49.204;10.652;2023-03-01T07:56:50;28.23;;;19.50;;
14394;SDS011;7282;49.204;10.652;2023-03-01T07:59:17;29.73;;;18.77;;
14394;SDS011;7282;49.204;10.652;2023-03-01T08:01:43;27.70;;;19.13;;
14394;SDS011;7282;49.204;10.652;2023-03-01T08:04:10;29.17;;;19.60;;
14394;SDS011;7282;49.204;10.652;2023-03-01T08:06:37;29.10;;;19.27;;
14394;SDS011;7282;49.204;10.652;2023-03-01T08:09:03;28.97;;;19.40;;
14394;SDS011;7282;49.204;10.652;2023-03-01T08:11:30;28.10;;;18.67;;
14394;SDS011;7282;49.204;10.652;2023-03-01T08:13:57;30.10;;;19.87;;
14394;SDS011;7282;49.204;10.652;2023-03-01T08:16:23;28.37;;;18.83;;
14394;SDS011;7282;49.204;10.652;2023-03-01T08:18:50;28.50;;;19.53;;
14394;SDS011;7282;49.204;10.652;2023-03-01T08:21:17;28.97;;;19.60;;
14394;SDS011;7282;49.204;10.652;2023-03-01T08:23:44;28.90;;;19.53;;
14394;SDS011;7282;49.204;10.652;2023-03-01T08:26:14;29.10;;;19.13;;
14394;SDS011;7282;49.204;10.652;2023-03-01T08:28:41;31.93;;;20.23;;
14394;SDS011;7282;49.204;10.652;2023-03-01T08:33:43;26.63;;;19.60;;
14394;SDS011;7282;49.204;10.652;2023-03-01T08:36:09;27.17;;;19.03;;
14394;SDS011;7282;49.204;10.652;2023-03-01T08:38:36;31.97;;;19.77;;
14394;SDS011;7282;49.204;10.652;2023-03-01T08:41:03;30.27;;;19.87;;
14394;SDS011;7282;49.204;10.652;2023-03-01T08:43:30;31.40;;;20.27;;
14394;SDS011;7282;49.204;10.652;2023-03-01T08:45:57;26.70;;;19.30;;
14394;SDS011;7282;49.204;10.652;2023-03-01T08:48:23;27.23;;;18.37;;
14394;SDS011;7282;49.204;10.652;2023-03-01T08:50:50;29.83;;;20.00;;
14394;SDS011;7282;49.204;10.652;2023-03-01T08:53:17;28.83;;;18.97;;
14394;SDS011;7282;49.204;10.652;2023-03-01T08:55:44;28.67;;;19.40;;
14394;SDS011;7282;49.204;10.652;2023-03-01T08:58:10;29.67;;;19.47;;
14394;SDS011;7282;49.204;10.652;2023-03-01T09:00:37;26.53;;;18.87;;
14394;SDS011;7282;49.204;10.652;2023-03-01T09:03:04;28.13;;;18.10;;
14394;SDS011;7282;49.204;10.652;2023-03-01T09:05:32;30.20;;;19.73;;
14394;SDS011;7282;49.204;10.652;2023-03-01T09:07:58;27.40;;;18.70;;
14394;SDS011;7282;49.204;10.652;2023-03-01T09:10:27;33.20;;;19.70;;
14394;SDS011;7282;49.204;10.652;2023-03-01T09:12:54;28.53;;;19.93;;
14394;SDS011;7282;49.204;10.652;2023-03-01T09:15:21;28.53;;;19.93;;
14394;SDS011;7282;49.204;10.652;2023-03-01T09:17:47;28.27;;;19.37;;
14394;SDS011;7282;49.204;10.652;2023-03-01T09:20:14;25.70;;;19.13;;
14394;SDS011;7282;49.204;10.652;2023-03-01T09:22:41;26.33;;;19.20;;
14394;SDS011;7282;49.204;10.652;2023-03-01T09:25:08;26.13;;;18.43;;
14394;SDS011;7282;49.204;10.652;2023-03-01T09:27:35;25.13;;;18.50;;
14394;SDS011;7282;49.204;10.652;2023-03-01T09:30:02;28.23;;;18.13;;
14394;SDS011;7282;49.204;10.652;2023-03-01T09:32:33;30.03;;;19.97;;
14394;SDS011;7282;49.204;10.652;2023-03-01T09:34:57;24.93;;;18.23;;
14394;SDS011;7282;49.204;10.652;2023-03-01T09:37:29;31.47;;;19.87;;
14394;SDS011;7282;49.204;10.652;2023-03-01T09:39:55;27.37;;;18.60;;
14394;SDS011;7282;49.204;10.652;2023-03-01T09:42:22;28.23;;;19.00;;
14394;SDS011;7282;49.204;10.652;2023-03-01T09:47:21;26.57;;;19.03;;
14394;SDS011;7282;49.204;10.652;2023-03-01T09:50:00;25.93;;;18.57;;
14394;SDS011;7282;49.204;10.652;2023-03-01T09:52:25;25.60;;;19.07;;
14394;SDS011;7282;49.204;10.652;2023-03-01T09:54:53;26.33;;;19.30;;
14394;SDS011;7282;49.204;10.652;2023-03-01T09:57:25;30.13;;;19.23;;
14394;SDS011;7282;49.204;10.652;2023-03-01T10:02:22;26.37;;;19.33;;
14394;SDS011;7282;49.204;10.652;2023-03-01T10:04:54;26.83;;;19.17;;
14394;SDS011;7282;49.204;10.652;2023-03-01T10:10:04;27.73;;;18.37;;
14394;SDS011;7282;49.204;10.652;2023-03-01T10:12:33;27.70;;;18.83;;
14394;SDS011;7282;49.204;10.652;2023-03-01T10:20:15;25.07;;;18.50;;
14394;SDS011;7282;49.204;10.652;2023-03-01T10:22:39;26.67;;;17.93;;
14394;SDS011;7282;49.204;10.652;2023-03-01T10:25:06;26.87;;;18.07;;
14394;SDS011;7282;49.204;10.652;2023-03-01T10:27:38;25.47;;;19.60;;
14394;SDS011;7282;49.204;10.652;2023-03-01T10:32:32;31.77;;;20.97;;
14394;SDS011;7282;49.204;10.652;2023-03-01T10:34:58;35.90;;;20.93;;
14394;SDS011;7282;49.204;10.652;2023-03-01T10:37:25;27.27;;;18.17;;
14394;SDS011;7282;49.204;10.652;2023-03-01T10:42:35;25.53;;;17.83;;
14394;SDS011;7282;49.204;10.652;2023-03-01T10:45:14;24.70;;;18.77;;
14394;SDS011;7282;49.204;10.652;2023-03-01T10:47:27;24.60;;;17.13;;
14394;SDS011;7282;49.204;10.652;2023-03-01T10:49:58;23.30;;;17.80;;
14394;SDS011;7282;49.204;10.652;2023-03-01T10:52:30;37.23;;;19.43;;
14394;SDS011;7282;49.204;10.652;2023-03-01T10:55:02;24.63;;;17.90;;
14394;SDS011;7282;49.204;10.652;2023-03-01T10:57:32;27.47;;;17.70;;
14394;SDS011;7282;49.204;10.652;2023-03-01T11:00:25;25.30;;;18.33;;
14394;SDS011;7282;49.204;10.652;2023-03-01T11:02:49;24.90;;;18.47;;
14394;SDS011;7282;49.204;10.652;2023-03-01T11:05:19;24.20;;;17.30;;
14394;SDS011;7282;49.204;10.652;2023-03-01T11:07:55;25.47;;;16.70;;
14394;SDS011;7282;49.204;10.652;2023-03-01T11:10:23;23.67;;;17.60;;
14394;SDS011;7282;49.204;10.652;2023-03-01T11:12:51;24.60;;;17.60;;
14394;SDS011;7282;49.204;10.652;2023-03-01T11:15:24;20.80;;;16.67;;
14394;SDS011;7282;49.204;10.652;2023-03-01T11:17:46;23.50;;;17.73;;
14394;SDS011;7282;49.204;10.652;2023-03-01T11:20:17;22.60;;;16.57;;
14394;SDS011;7282;49.204;10.652;2023-03-01T11:22:45;23.37;;;17.50;;
14394;SDS011;7282;49.204;10.652;2023-03-01T11:25:11;21.80;;;16.43;;
14394;SDS011;7282;49.204;10.652;2023-03-01T11:27:40;21.60;;;17.67;;
14394;SDS011;7282;49.204;10.652;2023-03-01T11:30:21;22.10;;;17.10;;
14394;SDS011;7282;49.204;10.652;2023-03-01T11:32:52;19.00;;;15.30;;
14394;SDS011;7282;49.204;10.652;2023-03-01T11:35:18;24.90;;;16.87;;
14394;SDS011;7282;49.204;10.652;2023-03-01T11:40:32;25.93;;;16.77;;
14394;SDS011;7282;49.204;10.652;2023-03-01T11:45:38;24.53;;;16.67;;
14394;SDS011;7282;49.204;10.652;2023-03-01T11:48:07;24.83;;;17.00;;
14394;SDS011;7282;49.204;10.652;2023-03-01T11:50:40;22.63;;;15.23;;
14394;SDS011;7282;49.204;10.652;2023-03-01T11:55:43;19.60;;;14.80;;
14394;SDS011;7282;49.204;10.652;2023-03-01T11:58:18;21.97;;;15.70;;
14394;SDS011;7282;49.204;10.652;2023-03-01T12:00:45;20.27;;;16.07;;
14394;SDS011;7282;49.204;10.652;2023-03-01T12:03:17;21.80;;;15.97;;
14394;SDS011;7282;49.204;10.652;2023-03-01T12:08:36;18.77;;;14.77;;
14394;SDS011;7282;49.204;10.652;2023-03-01T12:11:24;19.80;;;15.03;;
14394;SDS011;7282;49.204;10.652;2023-03-01T12:13:40;19.77;;;14.83;;
14394;SDS011;7282;49.204;10.652;2023-03-01T12:19:01;23.73;;;15.93;;
14394;SDS011;7282;49.204;10.652;2023-03-01T12:26:49;19.10;;;15.00;;
14394;SDS011;7282;49.204;10.652;2023-03-01T12:29:22;19.53;;;13.90;;
14394;SDS011;7282;49.204;10.652;2023-03-01T12:31:59;19.37;;;14.50;;
14394;SDS011;7282;49.204;10.652;2023-03-01T12:34:29;41.83;;;17.93;;
14394;SDS011;7282;49.204;10.652;2023-03-01T12:42:13;16.67;;;13.70;;
14394;SDS011;7282;49.204;10.652;2023-03-01T12:44:55;16.67;;;13.43;;
14394;SDS011;7282;49.204;10.652;2023-03-01T12:47:26;17.47;;;13.47;;
14394;SDS011;7282;49.204;10.652;2023-03-01T12:49:57;17.47;;;13.70;;
14394;SDS011;7282;49.204;10.652;2023-03-01T12:52:38;66.37;;;20.30;;
14394;SDS011;7282;49.204;10.652;2023-03-01T12:55:07;19.93;;;14.90;;
14394;SDS011;7282;49.204;10.652;2023-03-01T12:57:39;23.93;;;16.37;;
14394;SDS011;7282;49.204;10.652;2023-03-01T13:03:00;20.40;;;15.83;;
14394;SDS011;7282;49.204;10.652;2023-03-01T13:08:52;24.60;;;14.73;;
14394;SDS011;7282;49.204;10.652;2023-03-01T13:10:48;20.17;;;15.27;;
14394;SDS011;7282;49.204;10.652;2023-03-01T13:13:22;22.33;;;15.33;;
14394;SDS011;7282;49.204;10.652;2023-03-01T13:15:50;22.23;;;16.37;;
14394;SDS011;7282;49.204;10.652;2023-03-01T13:20:47;21.73;;;15.83;;
14394;SDS011;7282;49.204;10.652;2023-03-01T13:31:03;18.97;;;14.10;;
14394;SDS011;7282;49.204;10.652;2023-03-01T13:36:00;18.50;;;14.43;;
14394;SDS011;7282;49.204;10.652;2023-03-01T13:41:13;17.33;;;14.23;;
14394;SDS011;7282;49.204;10.652;2023-03-01T13:43:41;18.90;;;14.37;;
14394;SDS011;7282;49.204;10.652;2023-03-01T13:46:21;18.67;;;14.77;;
14394;SDS011;7282;49.204;10.652;2023-03-01T13:48:55;19.53;;;14.87;;
14394;SDS011;7282;49.204;10.652;2023-03-01T13:51:20;16.53;;;13.90;;
14394;SDS011;7282;49.204;10.652;2023-03-01T13:53:46;20.13;;;14.43;;
14394;SDS011;7282;49.204;10.652;2023-03-01T13:56:15;17.20;;;14.37;;
14394;SDS011;7282;49.204;10.652;2023-03-01T13:58:49;19.07;;;15.53;;
14394;SDS011;7282;49.204;10.652;2023-03-01T14:01:28;17.87;;;15.17;;
14394;SDS011;7282;49.204;10.652;2023-03-01T14:03:51;20.97;;;15.07;;
14394;SDS011;7282;49.204;10.652;2023-03-01T14:06:32;37.83;;;16.40;;
14394;SDS011;7282;49.204;10.652;2023-03-01T14:09:13;19.07;;;15.50;;
14394;SDS011;7282;49.204;10.652;2023-03-01T14:19:26;18.07;;;13.77;;
14394;SDS011;7282;49.204;10.652;2023-03-01T14:24:40;23.80;;;15.10;;
14394;SDS011;7282;49.204;10.652;2023-03-01T14:27:10;16.43;;;13.80;;
14394;SDS011;7282;49.204;10.652;2023-03-01T14:29:37;17.20;;;13.90;;
14394;SDS011;7282;49.204;10.652;2023-03-01T14:32:12;20.87;;;13.90;;
14394;SDS011;7282;49.204;10.652;2023-03-01T14:34:42;21.97;;;13.73;;
14394;SDS011;7282;49.204;10.652;2023-03-01T14:37:27;18.10;;;13.83;;
14394;SDS011;7282;49.204;10.652;2023-03-01T14:39:39;17.50;;;13.17;;
14394;SDS011;7282;49.204;10.652;2023-03-01T14:42:06;16.10;;;13.20;;
14394;SDS011;7282;49.204;10.652;2023-03-01T14:44:32;42.70;;;16.37;;
14394;SDS011;7282;49.204;10.652;2023-03-01T14:47:01;15.13;;;12.77;;
14394;SDS011;7282;49.204;10.652;2023-03-01T14:49:29;16.93;;;13.13;;
14394;SDS011;7282;49.204;10.652;2023-03-01T14:52:00;16.13;;;13.63;;
14394;SDS011;7282;49.204;10.652;2023-03-01T14:54:39;15.73;;;13.40;;
14394;SDS011;7282;49.204;10.652;2023-03-01T14:57:00;15.37;;;12.87;;
14394;SDS011;7282;49.204;10.652;2023-03-01T14:59:27;16.87;;;12.27;;
14394;SDS011;7282;49.204;10.652;2023-03-01T15:01:55;15.40;;;12.23;;
14394;SDS011;7282;49.204;10.652;2023-03-01T15:04:23;18.47;;;13.60;;
14394;SDS011;7282;49.204;10.652;2023-03-01T15:06:51;14.67;;;11.77;;
14394;SDS011;7282;49.204;10.652;2023-03-01T15:09:17;17.13;;;13.07;;
14394;SDS011;7282;49.204;10.652;2023-03-01T15:11:45;17.17;;;12.90;;
14394;SDS011;7282;49.204;10.652;2023-03-01T15:16:57;21.17;;;13.37;;
14394;SDS011;7282;49.204;10.652;2023-03-01T15:19:24;24.33;;;13.43;;
14394;SDS011;7282;49.204;10.652;2023-03-01T15:21:52;13.97;;;12.47;;
14394;SDS011;7282;49.204;10.652;2023-03-01T15:24:20;17.33;;;13.27;;
14394;SDS011;7282;49.204;10.652;2023-03-01T15:26:52;17.90;;;13.87;;
14394;SDS011;7282;49.204;10.652;2023-03-01T15:29:25;18.53;;;13.90;;
14394;SDS011;7282;49.204;10.652;2023-03-01T15:31:55;19.67;;;14.30;;
14394;SDS011;7282;49.204;10.652;2023-03-01T15:34:26;14.80;;;13.00;;
14394;SDS011;7282;49.204;10.652;2023-03-01T15:36:54;19.70;;;12.80;;
14394;SDS011;7282;49.204;10.652;2023-03-01T15:39:32;16.87;;;12.67;;
14394;SDS011;7282;49.204;10.652;2023-03-01T15:42:08;15.70;;;13.10;;
14394;SDS011;7282;49.204;10.652;2023-03-01T15:44:38;15.80;;;12.70;;
14394;SDS011;7282;49.204;10.652;2023-03-01T15:47:07;16.27;;;13.20;;
14394;SDS011;7282;49.204;10.652;2023-03-01T15:52:05;16.13;;;13.80;;
14394;SDS011;7282;49.204;10.652;2023-03-01T15:54:32;21.27;;;13.87;;
14394;SDS011;7282;49.204;10.652;2023-03-01T15:57:00;15.70;;;13.83;;